createdAt,value
2023-02-15T00:03:38.323Z,1520
2023-02-15T00:08:57.206Z,1527
2023-02-15T00:14:15.732Z,1521
2023-02-15T00:19:34.254Z,1523
2023-02-15T00:24:52.252Z,1530
2023-02-15T00:30:11.089Z,1533
2023-02-15T00:35:29.123Z,1531
2023-02-15T00:40:47.326Z,1536
2023-02-15T00:46:05.882Z,1531
2023-02-15T00:51:24.576Z,1536
2023-02-15T00:56:42.799Z,1548
2023-02-15T01:02:01.285Z,1549
2023-02-15T01:07:19.937Z,1546
2023-02-15T01:12:38.521Z,1543
2023-02-15T01:17:56.717Z,1544
2023-02-15T01:23:14.950Z,1549
2023-02-15T01:28:33.466Z,1556
2023-02-15T01:33:51.667Z,1550
2023-02-15T01:39:09.927Z,1529
2023-02-15T01:44:28.404Z,1528
2023-02-15T01:49:46.897Z,1533
2023-02-15T01:55:06.404Z,1526
2023-02-15T02:00:27.445Z,1519
2023-02-15T02:05:45.625Z,1522
2023-02-15T02:11:04.433Z,1513
2023-02-15T02:16:23.041Z,1506
2023-02-15T02:21:41.147Z,1521
2023-02-15T02:26:59.674Z,1517
2023-02-15T02:32:17.709Z,1518
2023-02-15T02:37:36.473Z,1522
2023-02-15T02:42:55.348Z,1521
2023-02-15T02:48:13.597Z,1526
2023-02-15T02:53:32.075Z,1530
2023-02-15T02:58:50.316Z,1528
2023-02-15T03:04:08.509Z,1536
2023-02-15T03:09:26.988Z,1531
2023-02-15T03:14:45.797Z,1534
2023-02-15T03:20:03.805Z,1534
2023-02-15T03:25:22.271Z,1540
2023-02-15T03:30:41.058Z,1539
2023-02-15T03:35:59.861Z,1531
2023-02-15T03:41:19.611Z,1540
2023-02-15T03:46:38.518Z,1552
2023-02-15T03:51:57.110Z,1555
2023-02-15T03:57:15.319Z,1562
2023-02-15T04:02:17.919Z,1565
2023-02-15T04:07:36.112Z,1561
2023-02-15T04:12:54.646Z,1562
2023-02-15T04:18:13.532Z,1551
2023-02-15T04:23:31.752Z,1548
2023-02-15T04:28:50.496Z,1548
2023-02-15T04:34:09.014Z,1549
2023-02-15T04:39:27.521Z,1547
2023-02-15T04:44:46.028Z,1542
2023-02-15T04:50:04.287Z,1554
2023-02-15T04:55:22.473Z,1555
2023-02-15T05:00:41.045Z,1548
2023-02-15T05:05:59.716Z,1544
2023-02-15T05:11:19.393Z,1545
2023-02-15T05:16:38.003Z,1543
2023-02-15T05:21:56.273Z,1547
2023-02-15T05:27:15.070Z,1529
2023-02-15T05:32:33.129Z,1523
2023-02-15T05:37:52.376Z,1524
2023-02-15T05:43:11.134Z,1525
2023-02-15T05:48:30.100Z,1420
2023-02-15T05:53:48.885Z,1406
2023-02-15T05:59:07.392Z,1391
2023-02-15T06:04:26.182Z,1403
2023-02-15T06:09:44.657Z,1400
2023-02-15T06:15:03.338Z,1398
2023-02-15T06:20:21.801Z,1388
2023-02-15T06:25:40.588Z,1394
2023-02-15T06:30:59.190Z,1389
2023-02-15T06:36:18.149Z,1384
2023-02-15T06:41:36.943Z,1379
2023-02-15T06:46:55.463Z,1461
2023-02-15T06:52:14.338Z,1412
2023-02-15T06:57:32.980Z,1410
2023-02-15T07:02:51.575Z,1378
2023-02-15T07:08:10.073Z,1349
2023-02-15T07:13:29.054Z,1322
2023-02-15T07:18:46.962Z,1304
2023-02-15T07:24:05.260Z,1292
2023-02-15T07:29:09.933Z,1279
2023-02-15T07:34:27.971Z,1276
2023-02-15T07:39:46.816Z,1268
2023-02-15T07:45:05.371Z,1257
2023-02-15T07:50:23.876Z,1254
2023-02-15T07:55:42.074Z,1252
2023-02-15T08:01:00.667Z,1251
2023-02-15T08:06:19.497Z,1244
2023-02-15T08:11:37.748Z,1239
2023-02-15T08:16:56.122Z,1236
2023-02-15T08:22:14.602Z,1226
2023-02-15T08:27:32.519Z,1227
2023-02-15T08:32:50.765Z,1221
2023-02-15T08:38:09.034Z,1216
2023-02-15T08:43:27.515Z,1207
2023-02-15T08:48:47.319Z,1209
2023-02-15T08:54:05.875Z,1209
2023-02-15T08:59:24.393Z,1204
2023-02-15T09:04:43.226Z,1197
2023-02-15T09:10:01.922Z,1192
2023-02-15T09:15:20.148Z,1196
2023-02-15T09:20:39.445Z,1184
2023-02-15T09:25:58.031Z,1188
2023-02-15T09:31:16.309Z,1186
2023-02-15T09:36:35.113Z,1179
2023-02-15T09:41:53.424Z,1178
2023-02-15T09:47:11.936Z,1176
2023-02-15T09:52:31.001Z,1168
2023-02-15T09:57:49.491Z,1163
2023-02-15T10:02:53.358Z,1160
2023-02-15T10:07:56.526Z,1154
2023-02-15T10:13:14.641Z,1151
2023-02-15T10:18:33.173Z,1145
2023-02-15T10:23:52.045Z,1141
2023-02-15T10:29:10.531Z,1130
2023-02-15T10:34:29.399Z,1126
2023-02-15T10:39:47.627Z,1113
2023-02-15T10:45:05.831Z,1110
2023-02-15T10:50:24.325Z,1104
2023-02-15T10:55:42.446Z,1104
2023-02-15T11:01:01.569Z,1099
2023-02-15T11:06:21.536Z,1101
2023-02-15T11:11:40.528Z,1103
2023-02-15T11:16:59.386Z,1108
2023-02-15T11:22:18.085Z,1103
2023-02-15T11:27:36.894Z,1103
2023-02-15T11:32:55.787Z,1110
2023-02-15T11:38:14.313Z,1107
2023-02-15T11:43:33.137Z,1105
2023-02-15T11:48:51.432Z,1099
2023-02-15T11:54:09.889Z,1099
2023-02-15T11:59:28.228Z,1116
2023-02-15T12:04:46.736Z,1130
2023-02-15T12:10:05.587Z,1137
2023-02-15T12:15:23.863Z,1141
2023-02-15T12:20:42.226Z,1138
2023-02-15T12:26:00.502Z,1137
2023-02-15T12:31:19.353Z,1130
2023-02-15T12:36:38.769Z,1132
2023-02-15T12:41:56.658Z,1143
2023-02-15T12:47:15.114Z,1137
2023-02-15T12:52:38.853Z,1125
2023-02-15T12:57:57.852Z,1119
2023-02-15T13:03:16.169Z,1118
2023-02-15T13:08:34.717Z,1117
2023-02-15T13:13:53.297Z,1109
2023-02-15T13:19:12.155Z,1110
2023-02-15T13:24:30.658Z,1109
2023-02-15T13:29:49.464Z,1110
2023-02-15T13:35:07.759Z,1114
2023-02-15T13:40:10.521Z,1112
2023-02-15T13:45:29.059Z,1113
2023-02-15T13:50:47.786Z,1112
2023-02-15T13:56:06.028Z,1116
2023-02-15T14:01:24.557Z,1119
2023-02-15T14:06:43.554Z,1113
2023-02-15T14:12:02.323Z,1114
2023-02-15T14:17:21.015Z,1109
2023-02-15T14:22:39.666Z,1104
2023-02-15T14:27:57.962Z,1110
2023-02-15T14:33:16.675Z,1108
2023-02-15T14:38:24.009Z,1106
2023-02-15T14:43:43.676Z,1105
2023-02-15T14:49:04.242Z,1101
2023-02-15T14:54:23.126Z,1100
2023-02-15T14:59:41.355Z,1103
2023-02-15T15:05:00.160Z,1109
2023-02-15T15:10:18.723Z,1107
2023-02-15T15:15:38.905Z,1108
2023-02-15T15:20:58.933Z,1112
2023-02-15T15:26:17.615Z,1119
2023-02-15T15:31:36.128Z,1117
2023-02-15T15:36:40.596Z,1122
2023-02-15T15:41:58.879Z,1120
2023-02-15T15:47:01.731Z,1124
2023-02-15T15:52:20.217Z,1122
2023-02-15T15:57:38.814Z,1128
2023-02-15T16:02:57.470Z,1125
2023-02-15T16:08:16.020Z,1142
2023-02-15T16:13:34.844Z,1154
2023-02-15T16:18:53.659Z,1162
2023-02-15T16:24:12.412Z,1087
2023-02-15T16:29:31.243Z,1113
2023-02-15T16:34:49.772Z,1113
2023-02-15T16:40:08.588Z,1113
2023-02-15T16:45:27.079Z,1122
2023-02-15T16:50:45.155Z,1129
2023-02-15T16:56:03.364Z,1133
2023-02-15T17:01:21.779Z,1131
2023-02-15T17:06:25.438Z,1126
2023-02-15T17:11:44.276Z,1131
2023-02-15T17:17:02.773Z,1130
2023-02-15T17:22:27.969Z,1128
2023-02-15T17:27:48.004Z,1135
2023-02-15T17:32:55.021Z,1141
2023-02-15T17:38:13.331Z,1147
2023-02-15T17:43:32.609Z,1152
2023-02-15T17:48:50.794Z,1204
2023-02-15T17:54:09.068Z,1199
2023-02-15T17:59:27.315Z,1201
2023-02-15T18:04:45.895Z,1185
2023-02-15T18:10:04.966Z,1172
2023-02-15T18:15:23.527Z,1162
2023-02-15T18:20:42.022Z,1189
2023-02-15T18:26:00.131Z,1190
2023-02-15T18:31:19.007Z,1184
2023-02-15T18:36:37.543Z,1140
2023-02-15T18:41:55.777Z,1092
2023-02-15T18:47:13.957Z,1055
2023-02-15T18:52:32.798Z,1029
2023-02-15T18:57:51.067Z,983
2023-02-15T19:03:09.878Z,948
2023-02-15T19:08:28.439Z,778
2023-02-15T19:13:46.646Z,800
2023-02-15T19:19:07.254Z,826
2023-02-15T19:24:26.032Z,831
2023-02-15T19:29:44.547Z,820
2023-02-15T19:35:03.028Z,812
2023-02-15T19:40:21.851Z,825
2023-02-15T19:45:40.445Z,873
2023-02-15T19:50:58.579Z,869
2023-02-15T19:56:17.478Z,863
2023-02-15T20:01:35.881Z,861
2023-02-15T20:06:39.104Z,862
2023-02-15T20:11:57.065Z,878
2023-02-15T20:17:15.340Z,889
2023-02-15T20:22:33.542Z,899
2023-02-15T20:27:51.741Z,908
2023-02-15T20:33:10.541Z,928
2023-02-15T20:38:29.424Z,946
2023-02-15T20:43:48.059Z,966
2023-02-15T20:49:06.744Z,969
2023-02-15T20:54:27.818Z,975
2023-02-15T20:59:46.384Z,982
2023-02-15T21:05:05.135Z,993
2023-02-15T21:10:23.661Z,1002
2023-02-15T21:15:42.468Z,1008
2023-02-15T21:21:01.169Z,1033
2023-02-15T21:26:20.293Z,1088
2023-02-15T21:31:39.475Z,1142
2023-02-15T21:36:57.860Z,1190
2023-02-15T21:42:16.380Z,1243
2023-02-15T21:47:34.955Z,1277
2023-02-15T21:52:53.513Z,1360
2023-02-15T21:58:12.269Z,1382
2023-02-15T22:03:31.045Z,1379
2023-02-15T22:08:49.264Z,1374
2023-02-15T22:14:07.538Z,1372
2023-02-15T22:19:26.401Z,1366
2023-02-15T22:24:44.740Z,1368
2023-02-15T22:30:03.293Z,1375
2023-02-15T22:35:21.772Z,1384
2023-02-15T22:40:39.964Z,1384
2023-02-15T22:45:58.485Z,1385
2023-02-15T22:51:17.082Z,1397
2023-02-15T22:56:35.716Z,1402
2023-02-15T23:01:54.461Z,1402
2023-02-15T23:07:12.951Z,1404
2023-02-15T23:12:31.844Z,1406
2023-02-15T23:17:50.355Z,1406
2023-02-15T23:23:09.875Z,1405
2023-02-15T23:28:28.665Z,1405
2023-02-15T23:33:47.008Z,1411
2023-02-15T23:39:05.819Z,1409
2023-02-15T23:44:24.579Z,1411
2023-02-15T23:49:43.361Z,1408
2023-02-15T23:55:01.890Z,1409
